Decoded Metar for LELO (LOGRONO in SPAIN) (IATA:RJL) | Meteo·Mobile Aviation Weather
aviador You're here:

LELO Decoded Metar

LOGRONO in SPAIN
Report Time2019-10-19 22:00:00
UTC Time2019-10-19 22:16:04
Flight Rules vfr VFR
Wind120° at 03 kt
Visibility9999 m
Phenomena:N/A
Clouds:N/A
Expected CloudBase > 2,400 ft AGL from Temp-Dew spread
CeilingNone
Temp16°C (ISA +3)
Dew Point10°C (68% RH)
AAT15.0°C
QNH1003 hPa
Density Alt2,096 ft
Elevation1,191 ft
Report Wrong Elevation
Raw Report
METAR LELO 192200Z AUTO 12003KT 080V170 CAVOK 16/10 Q1003=

Extra information for LELO:More info

Metar Taf Metar & Taf Last 4 Metars F.Rules Stats Wind Profile Meteogram Temp Stats Airport Information Weather charts Add Link Nearby VenuesMetar ALERT Operation Metar Decoded Social comments